Kalar Kahar Weather



Kalar Kahar's Current Weather

Temprature 33.1o clear sky

clear sky

Rain: 0 %

Min Temprature33.1o
Max Temprature33.1o
Humidity38
Wind Speed2.58 m/h
Sun Rise05:06:28
Sun Set19:20:47
Current Time: 05-Jul-2020 18:58:43
Lat/Lon: 32.78, 72.7




Kalar Kahar's Geo Location



Kalar Kahar's Weather Forecast

Time Overall Temp Min Temp Max Temp Humidity Wind Speed Rain
05-Jul-2020 (Sun)
20:00:00 clear sky 33.180 32.510 33.180 39 1.62 m/h 0 %
23:00:00 clear sky 31.610 31.000 31.610 42 2.62 m/h 0 %
06-Jul-2020 (Mon)
02:00:00 clear sky 29.860 29.590 29.860 49 1.49 m/h 0 %
05:00:00 light rain 29.000 28.960 29.000 51 1.81 m/h 14 %
08:00:00 clear sky 31.860 31.860 31.860 39 1.9 m/h 0 %
11:00:00 clear sky 35.280 35.280 35.280 30 1.68 m/h 0 %
14:00:00 clear sky 38.170 38.170 38.170 21 0.95 m/h 0 %
17:00:00 clear sky 38.890 38.890 38.890 17 2.94 m/h 0 %
20:00:00 clear sky 36.120 36.120 36.120 21 2.21 m/h 0 %
23:00:00 clear sky 34.010 34.010 34.010 29 0.7 m/h 0 %
07-Jul-2020 (Tue)
02:00:00 clear sky 32.810 32.810 32.810 27 1.63 m/h 0 %
05:00:00 clear sky 31.420 31.420 31.420 29 2.18 m/h 0 %
08:00:00 clear sky 35.470 35.470 35.470 22 3.46 m/h 0 %
11:00:00 few clouds 38.600 38.600 38.600 20 2.93 m/h 0 %
14:00:00 overcast clouds 40.320 40.320 40.320 17 1.72 m/h 0 %
17:00:00 overcast clouds 40.660 40.660 40.660 15 1.91 m/h 0 %
20:00:00 overcast clouds 37.590 37.590 37.590 20 1.87 m/h 0 %
23:00:00 scattered clouds 35.920 35.920 35.920 22 2.07 m/h 0 %
08-Jul-2020 (Wed)
02:00:00 clear sky 34.230 34.230 34.230 24 1.72 m/h 0 %
05:00:00 clear sky 32.420 32.420 32.420 33 2.89 m/h 0 %
08:00:00 clear sky 33.850 33.850 33.850 43 5.97 m/h 0 %
11:00:00 clear sky 37.840 37.840 37.840 32 3.95 m/h 0 %
14:00:00 clear sky 41.080 41.080 41.080 19 1.04 m/h 0 %
17:00:00 scattered clouds 41.430 41.430 41.430 17 0.89 m/h 0 %
20:00:00 clear sky 39.040 39.040 39.040 21 1.73 m/h 0 %
23:00:00 clear sky 35.750 35.750 35.750 29 4.2 m/h 0 %
09-Jul-2020 (Thu)
02:00:00 broken clouds 33.910 33.910 33.910 38 3.63 m/h 0 %
05:00:00 scattered clouds 32.030 32.030 32.030 44 4.2 m/h 0 %
08:00:00 few clouds 32.250 32.250 32.250 52 6.4 m/h 0 %
11:00:00 few clouds 37.050 37.050 37.050 38 5.8 m/h 0 %
14:00:00 scattered clouds 40.500 40.500 40.500 24 2.1 m/h 0 %
17:00:00 scattered clouds 41.410 41.410 41.410 20 3.22 m/h 0 %
20:00:00 overcast clouds 37.250 37.250 37.250 24 4.41 m/h 0 %
23:00:00 broken clouds 34.460 34.460 34.460 32 1.97 m/h 0 %
10-Jul-2020 (Fri)
02:00:00 moderate rain 27.100 27.100 27.100 67 6.29 m/h 864 %
05:00:00 light rain 27.920 27.920 27.920 64 5.11 m/h 181 %
08:00:00 light rain 27.510 27.510 27.510 64 3.16 m/h 206 %
11:00:00 light rain 32.530 32.530 32.530 48 2.8 m/h 70 %
14:00:00 clear sky 36.030 36.030 36.030 40 2.27 m/h 0 %
17:00:00 clear sky 37.680 37.680 37.680 34 1.99 m/h 0 %

Famous Cities (60)